Time;durP1;ratioP1;P1;durP2;ratioP2;P2;SDS_P1;SDS_P2;PMS_P1;PMS_P2;Temp;Humidity;BMP_temperature;BMP_pressure;BME280_temperature;BME280_humidity;BME280_pressure;Samples;Min_cycle;Max_cycle;Signal;HPM_P1;HPM_P2
2023/08/26 00:01:55;;;;;;;18.42;13.07;;;;;;;;;;5074403;28;20041;-62
2023/08/26 00:04:21;;;;;;;17.92;13.77;;;;;;;;;;5074257;28;20044;-62
2023/08/26 00:06:48;;;;;;;19.80;13.98;;;;;;;;;;5073563;28;20046;-62
2023/08/26 00:09:14;;;;;;;18.55;14.30;;;;;;;;;;5074417;28;20041;-62
2023/08/26 00:11:41;;;;;;;19.88;13.30;;;;;;;;;;5074273;28;20041;-62
2023/08/26 00:14:07;;;;;;;17.95;12.65;;;;;;;;;;5072794;28;20043;-62
2023/08/26 00:16:33;;;;;;;18.70;12.88;;;;;;;;;;5074363;28;20036;-62
2023/08/26 00:18:59;;;;;;;19.33;12.93;;;;;;;;;;5056137;28;20098;-62
2023/08/26 00:21:26;;;;;;;16.30;12.45;;;;;;;;;;5073783;28;20120;-62
2023/08/26 00:23:52;;;;;;;18.98;12.18;;;;;;;;;;5074104;28;20135;-62
2023/08/26 00:26:18;;;;;;;17.25;12.32;;;;;;;;;;5084481;28;20169;-62
2023/08/26 00:28:44;;;;;;;20.67;13.23;;;;;;;;;;5093629;28;20483;-62
2023/08/26 00:31:11;;;;;;;19.10;12.35;;;;;;;;;;5094063;28;20523;-62
2023/08/26 00:33:37;;;;;;;21.02;12.50;;;;;;;;;;5092932;28;20036;-62
2023/08/26 00:36:03;;;;;;;16.70;12.27;;;;;;;;;;5093716;28;20047;-62
2023/08/26 00:38:29;;;;;;;17.60;11.23;;;;;;;;;;5094288;28;20466;-62
2023/08/26 00:40:55;;;;;;;18.52;12.57;;;;;;;;;;5092740;28;20083;-62
2023/08/26 00:43:21;;;;;;;20.38;12.00;;;;;;;;;;5093597;28;20177;-62
2023/08/26 00:45:49;;;;;;;14.05;11.73;;;;;;;;;;5093912;28;20055;-62
2023/08/26 00:48:15;;;;;;;19.73;11.80;;;;;;;;;;5092671;28;20040;-62
2023/08/26 00:50:46;;;;;;;16.23;11.00;;;;;;;;;;5075000;28;20165;-62
2023/08/26 00:53:13;;;;;;;16.13;10.95;;;;;;;;;;5073517;28;20050;-62
2023/08/26 00:55:42;;;;;;;18.08;12.15;;;;;;;;;;5073474;28;20503;-62
2023/08/26 00:58:08;;;;;;;13.00;10.80;;;;;;;;;;5073189;28;20387;-62
2023/08/26 01:00:39;;;;;;;15.75;10.38;;;;;;;;;;5073381;28;20032;-62
2023/08/26 01:03:05;;;;;;;15.85;11.10;;;;;;;;;;5072523;28;20072;-62
2023/08/26 01:05:31;;;;;;;13.73;10.27;;;;;;;;;;5072998;28;20422;-63
2023/08/26 01:07:58;;;;;;;15.45;10.68;;;;;;;;;;5073382;28;20470;-62
2023/08/26 01:10:40;;;;;;;13.75;9.73;;;;;;;;;;5073036;28;20037;-62
2023/08/26 01:13:10;;;;;;;16.73;10.85;;;;;;;;;;5071847;28;20043;-62
2023/08/26 01:15:37;;;;;;;16.17;10.35;;;;;;;;;;5073290;28;20127;-62
2023/08/26 01:18:06;;;;;;;13.25;10.23;;;;;;;;;;5073245;28;20033;-62
2023/08/26 01:20:33;;;;;;;12.95;10.10;;;;;;;;;;5072730;28;20457;-62
2023/08/26 01:22:59;;;;;;;16.38;10.32;;;;;;;;;;5072789;28;20044;-62
2023/08/26 01:25:26;;;;;;;16.88;10.07;;;;;;;;;;5076314;28;20439;-62
2023/08/26 01:27:52;;;;;;;13.50;9.18;;;;;;;;;;5092226;28;20086;-62
2023/08/26 01:30:21;;;;;;;11.05;9.50;;;;;;;;;;5092992;28;20073;-62
2023/08/26 01:32:52;;;;;;;12.70;9.00;;;;;;;;;;5092792;28;20095;-62
2023/08/26 01:35:22;;;;;;;12.55;9.05;;;;;;;;;;5092363;28;20108;-62
2023/08/26 01:37:49;;;;;;;11.25;8.63;;;;;;;;;;5092865;28;20406;-62
2023/08/26 01:40:16;;;;;;;11.23;8.77;;;;;;;;;;5092812;28;20064;-62
2023/08/26 01:42:44;;;;;;;12.70;8.93;;;;;;;;;;5092459;28;20105;-62
2023/08/26 01:45:11;;;;;;;14.23;9.27;;;;;;;;;;5092708;28;20044;-62
2023/08/26 01:47:38;;;;;;;11.43;8.93;;;;;;;;;;5092750;28;20450;-62
2023/08/26 01:50:04;;;;;;;12.80;9.20;;;;;;;;;;5079175;28;20032;-62
2023/08/26 01:52:30;;;;;;;13.63;9.07;;;;;;;;;;5072510;28;20453;-62
2023/08/26 01:54:56;;;;;;;13.52;8.80;;;;;;;;;;5072338;28;20048;-62
2023/08/26 01:57:22;;;;;;;11.00;8.60;;;;;;;;;;5071983;28;20076;-62
2023/08/26 01:59:48;;;;;;;14.02;9.18;;;;;;;;;;5072274;28;20608;-62
2023/08/26 02:02:14;;;;;;;13.32;8.02;;;;;;;;;;5072276;28;20045;-62
2023/08/26 02:04:40;;;;;;;12.05;7.65;;;;;;;;;;5071849;28;20043;-62
2023/08/26 02:07:06;;;;;;;12.35;8.98;;;;;;;;;;5072103;28;20083;-62
2023/08/26 02:09:33;;;;;;;16.00;9.05;;;;;;;;;;5072137;28;20598;-62
2023/08/26 02:11:59;;;;;;;12.75;7.80;;;;;;;;;;5071193;28;20045;-62
2023/08/26 02:14:25;;;;;;;12.77;8.05;;;;;;;;;;5070738;28;20040;-62
2023/08/26 02:16:51;;;;;;;15.45;7.60;;;;;;;;;;5072134;28;20368;-62
2023/08/26 02:19:17;;;;;;;8.15;6.80;;;;;;;;;;5070287;28;20130;-62
2023/08/26 02:21:44;;;;;;;8.55;6.90;;;;;;;;;;5071837;28;20044;-62
2023/08/26 02:24:10;;;;;;;11.90;7.97;;;;;;;;;;5071889;28;20561;-62
2023/08/26 02:26:36;;;;;;;10.95;6.75;;;;;;;;;;5084599;28;20044;-62
2023/08/26 02:29:03;;;;;;;12.27;7.30;;;;;;;;;;5091804;28;20048;-62
2023/08/26 02:31:29;;;;;;;9.45;6.40;;;;;;;;;;5090292;28;20070;-62
2023/08/26 02:33:55;;;;;;;13.75;7.80;;;;;;;;;;5091571;28;20074;-62
2023/08/26 02:36:21;;;;;;;8.73;6.60;;;;;;;;;;5091701;28;20514;-62
2023/08/26 02:38:47;;;;;;;10.30;6.95;;;;;;;;;;5091932;28;20088;-62
2023/08/26 02:41:13;;;;;;;10.32;7.30;;;;;;;;;;5091436;28;20044;-62
2023/08/26 02:43:39;;;;;;;11.13;7.47;;;;;;;;;;5091908;28;20435;-62
2023/08/26 02:46:05;;;;;;;12.05;6.95;;;;;;;;;;5091794;28;20079;-62
2023/08/26 02:48:31;;;;;;;13.20;7.50;;;;;;;;;;5091386;28;20075;-62
2023/08/26 02:50:57;;;;;;;11.88;6.97;;;;;;;;;;5071354;28;20064;-62
2023/08/26 02:53:24;;;;;;;9.93;6.13;;;;;;;;;;5071531;28;20490;-62
2023/08/26 02:55:51;;;;;;;10.98;6.55;;;;;;;;;;5070851;28;20098;-62
2023/08/26 02:58:18;;;;;;;12.20;6.53;;;;;;;;;;5071540;28;20558;-62
2023/08/26 03:00:44;;;;;;;9.55;6.18;;;;;;;;;;5069797;28;20131;-62
2023/08/26 03:03:10;;;;;;;9.35;6.22;;;;;;;;;;5070863;28;20044;-62
2023/08/26 03:05:36;;;;;;;12.25;6.78;;;;;;;;;;5069936;28;20087;-62
2023/08/26 03:08:02;;;;;;;7.70;6.25;;;;;;;;;;5071578;28;20072;-62
2023/08/26 03:10:28;;;;;;;11.05;6.78;;;;;;;;;;5070823;28;20044;-62
2023/08/26 03:12:55;;;;;;;13.55;6.70;;;;;;;;;;5071478;28;20438;-62
2023/08/26 03:15:21;;;;;;;9.35;6.32;;;;;;;;;;5071410;28;20409;-62
2023/08/26 03:17:47;;;;;;;11.45;6.68;;;;;;;;;;5071035;28;20761;-62
2023/08/26 03:20:13;;;;;;;9.43;6.80;;;;;;;;;;5071339;28;20087;-62
2023/08/26 03:22:39;;;;;;;10.63;6.68;;;;;;;;;;5071390;28;20036;-62
2023/08/26 03:25:05;;;;;;;8.55;6.18;;;;;;;;;;5071419;28;20036;-62
2023/08/26 03:27:32;;;;;;;10.07;6.68;;;;;;;;;;5092753;28;20048;-62
2023/08/26 03:29:58;;;;;;;11.60;6.82;;;;;;;;;;5094944;28;20044;-62
2023/08/26 03:32:26;;;;;;;11.35;6.60;;;;;;;;;;5095440;28;20089;-62
2023/08/26 03:34:52;;;;;;;9.32;6.88;;;;;;;;;;5095305;28;20442;-62
2023/08/26 03:37:18;;;;;;;10.13;7.03;;;;;;;;;;5095464;28;20479;-62
2023/08/26 03:39:44;;;;;;;8.10;6.47;;;;;;;;;;5095397;28;20051;-62
2023/08/26 03:42:10;;;;;;;8.35;6.68;;;;;;;;;;5094718;28;20051;-62
2023/08/26 03:44:36;;;;;;;9.43;6.60;;;;;;;;;;5095401;28;20040;-62
2023/08/26 03:47:02;;;;;;;10.48;6.10;;;;;;;;;;5094889;28;20047;-62
2023/08/26 03:49:28;;;;;;;10.15;6.47;;;;;;;;;;5086769;28;20036;-62
2023/08/26 03:51:55;;;;;;;12.90;6.60;;;;;;;;;;5074469;28;20045;-62
2023/08/26 03:54:21;;;;;;;8.68;6.60;;;;;;;;;;5074718;28;20426;-62
2023/08/26 03:56:47;;;;;;;9.15;6.57;;;;;;;;;;5074436;28;20044;-62
2023/08/26 03:59:14;;;;;;;9.60;6.68;;;;;;;;;;5073518;28;20044;-62
2023/08/26 04:01:40;;;;;;;9.18;6.45;;;;;;;;;;5072897;28;20048;-62
2023/08/26 04:04:06;;;;;;;7.43;6.38;;;;;;;;;;5074323;28;20052;-62
2023/08/26 04:06:33;;;;;;;11.23;6.13;;;;;;;;;;5074446;28;20083;-62
2023/08/26 04:09:02;;;;;;;10.18;6.75;;;;;;;;;;5074769;28;20079;-62
2023/08/26 04:11:28;;;;;;;8.25;6.05;;;;;;;;;;5074036;28;20040;-62
2023/08/26 04:13:54;;;;;;;11.45;6.38;;;;;;;;;;5074500;28;20055;-62
2023/08/26 04:16:21;;;;;;;7.78;6.30;;;;;;;;;;5074054;28;20040;-62
2023/08/26 04:18:52;;;;;;;10.43;6.18;;;;;;;;;;5073953;28;20414;-62
2023/08/26 04:21:18;;;;;;;7.87;6.10;;;;;;;;;;5056083;28;20067;-62
2023/08/26 04:23:45;;;;;;;10.38;5.43;;;;;;;;;;5074318;28;20039;-62
2023/08/26 04:26:11;;;;;;;8.93;6.13;;;;;;;;;;5083132;28;20113;-62
2023/08/26 04:28:37;;;;;;;8.15;5.78;;;;;;;;;;5094248;28;20060;-62
2023/08/26 04:31:03;;;;;;;9.82;6.03;;;;;;;;;;5094050;28;20039;-62
2023/08/26 04:33:29;;;;;;;9.70;6.10;;;;;;;;;;5093991;28;20119;-62
2023/08/26 04:35:55;;;;;;;7.78;5.85;;;;;;;;;;5094205;28;20443;-62
2023/08/26 04:38:21;;;;;;;6.63;5.40;;;;;;;;;;5093113;28;20086;-62
2023/08/26 04:40:47;;;;;;;9.48;5.93;;;;;;;;;;5093481;28;20054;-62
2023/08/26 04:43:13;;;;;;;7.38;5.63;;;;;;;;;;5094261;28;20093;-62
2023/08/26 04:45:40;;;;;;;9.10;5.72;;;;;;;;;;5094199;28;20394;-62
2023/08/26 04:48:07;;;;;;;9.38;5.60;;;;;;;;;;5093659;28;20044;-62
2023/08/26 04:50:33;;;;;;;8.10;5.88;;;;;;;;;;5076784;28;20471;-62
2023/08/26 04:53:00;;;;;;;8.90;5.93;;;;;;;;;;5073679;28;20040;-62
2023/08/26 04:55:26;;;;;;;8.68;6.20;;;;;;;;;;5073091;28;20086;-62
2023/08/26 04:57:52;;;;;;;10.57;6.93;;;;;;;;;;5072332;28;20467;-62
2023/08/26 05:00:19;;;;;;;10.70;6.82;;;;;;;;;;5073570;28;20052;-62
2023/08/26 05:02:45;;;;;;;9.70;7.10;;;;;;;;;;5073205;28;20154;-62
2023/08/26 05:05:11;;;;;;;9.73;6.82;;;;;;;;;;5073620;28;20127;-62
2023/08/26 05:07:37;;;;;;;15.82;7.35;;;;;;;;;;5073008;28;20047;-62
2023/08/26 05:10:04;;;;;;;10.43;6.88;;;;;;;;;;5072994;28;20037;-62
2023/08/26 05:12:30;;;;;;;15.10;7.65;;;;;;;;;;5073364;28;20039;-62
2023/08/26 05:14:56;;;;;;;10.85;7.90;;;;;;;;;;5073394;28;20131;-62
2023/08/26 05:17:23;;;;;;;11.82;7.20;;;;;;;;;;5072895;28;20070;-62
2023/08/26 05:19:50;;;;;;;14.75;9.65;;;;;;;;;;5073008;28;20110;-62
2023/08/26 05:22:16;;;;;;;12.10;8.82;;;;;;;;;;5071541;28;20076;-62
2023/08/26 05:24:42;;;;;;;14.18;7.88;;;;;;;;;;5072765;28;20473;-62
2023/08/26 05:27:08;;;;;;;13.23;9.13;;;;;;;;;;5090608;28;20083;-62
2023/08/26 05:29:34;;;;;;;14.27;9.27;;;;;;;;;;5092729;28;20082;-62
2023/08/26 05:32:00;;;;;;;13.60;9.45;;;;;;;;;;5092601;28;20040;-62
2023/08/26 05:34:26;;;;;;;10.68;7.95;;;;;;;;;;5093078;28;20382;-62
2023/08/26 05:36:52;;;;;;;14.02;9.00;;;;;;;;;;5093132;28;20044;-62
2023/08/26 05:39:18;;;;;;;12.07;8.57;;;;;;;;;;5092386;28;20044;-62
2023/08/26 05:41:44;;;;;;;12.43;9.32;;;;;;;;;;5092925;28;20039;-62
2023/08/26 05:44:10;;;;;;;12.50;8.93;;;;;;;;;;5093055;28;20047;-62
2023/08/26 05:46:36;;;;;;;13.60;9.27;;;;;;;;;;5092512;28;20094;-62
2023/08/26 05:49:02;;;;;;;13.95;9.23;;;;;;;;;;5088350;28;20158;-62
2023/08/26 05:51:28;;;;;;;12.32;8.95;;;;;;;;;;5072125;28;20036;-62
2023/08/26 05:53:54;;;;;;;13.77;8.50;;;;;;;;;;5072139;28;20037;-62
2023/08/26 05:56:21;;;;;;;12.27;8.00;;;;;;;;;;5071233;28;20044;-62
2023/08/26 05:58:47;;;;;;;14.70;9.25;;;;;;;;;;5072414;28;20059;-62
2023/08/26 06:01:13;;;;;;;14.25;8.45;;;;;;;;;;5071938;28;20078;-62
2023/08/26 06:03:39;;;;;;;12.32;8.77;;;;;;;;;;5072314;28;20143;-62
2023/08/26 06:06:05;;;;;;;16.08;9.00;;;;;;;;;;5072250;28;20033;-62
2023/08/26 06:08:31;;;;;;;11.98;8.90;;;;;;;;;;5071782;28;20062;-62
2023/08/26 06:10:57;;;;;;;17.52;9.85;;;;;;;;;;5072086;28;20040;-62
2023/08/26 06:13:24;;;;;;;16.25;9.23;;;;;;;;;;5072117;28;20043;-62
2023/08/26 06:15:56;;;;;;;14.20;9.60;;;;;;;;;;5071595;28;20036;-62
2023/08/26 06:18:23;;;;;;;16.40;9.98;;;;;;;;;;5070747;28;20067;-62
2023/08/26 06:20:52;;;;;;;16.17;9.88;;;;;;;;;;5071708;28;20076;-62
2023/08/26 06:23:19;;;;;;;17.20;10.75;;;;;;;;;;5071567;28;20040;-62
2023/08/26 06:25:54;;;;;;;20.80;10.70;;;;;;;;;;5077946;28;20114;-62
2023/08/26 06:28:21;;;;;;;19.15;11.20;;;;;;;;;;5091724;28;20078;-62
2023/08/26 06:30:47;;;;;;;20.25;11.50;;;;;;;;;;5091593;28;20046;-62
2023/08/26 06:33:13;;;;;;;16.23;11.75;;;;;;;;;;5092105;28;20036;-62
2023/08/26 06:35:39;;;;;;;17.60;12.82;;;;;;;;;;5091635;28;20039;-62
2023/08/26 06:38:06;;;;;;;20.63;12.52;;;;;;;;;;5090317;28;20081;-62
2023/08/26 06:40:33;;;;;;;20.75;11.73;;;;;;;;;;5091862;28;20031;-62
2023/08/26 06:43:02;;;;;;;17.88;12.45;;;;;;;;;;5090272;28;20432;-63
2023/08/26 06:45:28;;;;;;;21.77;12.55;;;;;;;;;;5090228;28;20044;-62
2023/08/26 06:47:54;;;;;;;19.85;13.10;;;;;;;;;;5091872;28;20046;-62
2023/08/26 06:50:21;;;;;;;19.67;12.80;;;;;;;;;;5076407;28;20116;-62
2023/08/26 06:52:49;;;;;;;19.63;12.43;;;;;;;;;;5071221;28;20068;-62
2023/08/26 06:55:15;;;;;;;24.63;14.43;;;;;;;;;;5071670;28;20040;-62
2023/08/26 06:57:41;;;;;;;24.25;15.68;;;;;;;;;;5071668;28;20075;-62
2023/08/26 07:00:11;;;;;;;25.70;17.60;;;;;;;;;;5070980;28;20115;-62
2023/08/26 07:02:37;;;;;;;30.50;18.85;;;;;;;;;;5070856;28;20087;-62
2023/08/26 07:05:04;;;;;;;26.52;20.10;;;;;;;;;;5071450;28;20099;-62
2023/08/26 07:07:30;;;;;;;30.27;22.95;;;;;;;;;;5070607;28;20584;-62
2023/08/26 07:09:56;;;;;;;30.20;20.20;;;;;;;;;;5071523;28;20040;-62
2023/08/26 07:12:22;;;;;;;28.60;19.95;;;;;;;;;;5071352;28;20093;-62
2023/08/26 07:14:48;;;;;;;32.30;19.67;;;;;;;;;;5071035;28;20048;-62
2023/08/26 07:17:17;;;;;;;24.33;16.98;;;;;;;;;;5071154;28;20475;-62
2023/08/26 07:19:44;;;;;;;23.98;16.33;;;;;;;;;;5071296;28;20045;-62
2023/08/26 07:22:10;;;;;;;24.30;16.00;;;;;;;;;;5070785;28;20548;-62
2023/08/26 07:24:37;;;;;;;20.80;15.65;;;;;;;;;;5071335;28;20040;-62
2023/08/26 07:27:03;;;;;;;18.70;14.32;;;;;;;;;;5087747;28;20040;-62
2023/08/26 07:29:31;;;;;;;25.17;16.20;;;;;;;;;;5090736;28;20044;-62
2023/08/26 07:31:57;;;;;;;22.10;16.15;;;;;;;;;;5091204;28;20082;-62
2023/08/26 07:34:23;;;;;;;22.48;16.38;;;;;;;;;;5091299;28;20044;-62
2023/08/26 07:36:50;;;;;;;22.70;16.35;;;;;;;;;;5091343;28;20032;-62
2023/08/26 07:39:16;;;;;;;26.10;16.80;;;;;;;;;;5091313;28;20044;-62
2023/08/26 07:41:42;;;;;;;24.35;17.48;;;;;;;;;;5090932;28;20047;-62
2023/08/26 07:44:08;;;;;;;23.85;16.20;;;;;;;;;;5090900;28;20036;-62
2023/08/26 07:46:34;;;;;;;25.42;15.95;;;;;;;;;;5091189;28;20079;-62
2023/08/26 07:49:00;;;;;;;20.88;16.35;;;;;;;;;;5087271;28;20078;-62
2023/08/26 07:51:26;;;;;;;24.25;16.92;;;;;;;;;;5070703;28;20032;-62
2023/08/26 07:53:52;;;;;;;24.63;17.38;;;;;;;;;;5070979;28;20124;-62
2023/08/26 07:56:18;;;;;;;19.58;15.57;;;;;;;;;;5070919;28;20049;-62
2023/08/26 07:58:44;;;;;;;27.38;16.45;;;;;;;;;;5069601;28;20040;-62
2023/08/26 08:01:10;;;;;;;20.88;15.60;;;;;;;;;;5070134;28;20060;-62
2023/08/26 08:03:37;;;;;;;22.95;15.00;;;;;;;;;;5070873;28;20045;-62
2023/08/26 08:06:03;;;;;;;21.38;15.77;;;;;;;;;;5070729;28;20040;-62
2023/08/26 08:08:29;;;;;;;21.58;15.70;;;;;;;;;;5070508;28;20372;-62
2023/08/26 08:10:55;;;;;;;22.73;14.52;;;;;;;;;;5070874;28;20102;-62
2023/08/26 08:13:21;;;;;;;22.10;15.68;;;;;;;;;;5072891;28;20641;-62
2023/08/26 08:15:47;;;;;;;18.63;14.88;;;;;;;;;;5074021;28;20127;-62
2023/08/26 08:18:13;;;;;;;20.35;14.98;;;;;;;;;;5072866;28;20509;-62
2023/08/26 08:20:39;;;;;;;19.65;14.80;;;;;;;;;;5074242;28;20120;-62
2023/08/26 08:23:05;;;;;;;19.77;13.63;;;;;;;;;;5073791;28;20123;-62
2023/08/26 08:25:32;;;;;;;20.52;14.70;;;;;;;;;;5078424;28;20036;-62
2023/08/26 08:27:58;;;;;;;21.75;14.25;;;;;;;;;;5094269;28;20127;-62
2023/08/26 08:30:24;;;;;;;17.70;12.52;;;;;;;;;;5093459;28;20127;-62
2023/08/26 08:32:50;;;;;;;16.02;12.95;;;;;;;;;;5094273;28;20465;-62
2023/08/26 08:35:16;;;;;;;20.73;14.27;;;;;;;;;;5094111;28;20036;-62
2023/08/26 08:37:42;;;;;;;20.10;12.65;;;;;;;;;;5093831;28;20125;-62
2023/08/26 08:40:08;;;;;;;22.42;13.95;;;;;;;;;;5092520;28;20493;-62
2023/08/26 08:42:35;;;;;;;24.98;13.98;;;;;;;;;;5094185;28;20036;-62
2023/08/26 08:45:03;;;;;;;17.10;12.32;;;;;;;;;;5093767;28;20039;-62
2023/08/26 08:47:30;;;;;;;15.98;12.77;;;;;;;;;;5093970;28;20402;-62
2023/08/26 08:49:57;;;;;;;15.57;12.63;;;;;;;;;;5082053;28;20041;-62
2023/08/26 08:52:24;;;;;;;16.70;12.60;;;;;;;;;;5073084;28;20045;-62
2023/08/26 08:54:50;;;;;;;18.27;12.82;;;;;;;;;;5073744;28;20040;-62
2023/08/26 08:57:17;;;;;;;14.50;10.63;;;;;;;;;;5073595;28;20080;-62
2023/08/26 08:59:44;;;;;;;13.43;11.07;;;;;;;;;;5073187;28;20116;-62
2023/08/26 09:02:11;;;;;;;15.73;10.45;;;;;;;;;;5073417;28;20071;-62
2023/08/26 09:04:37;;;;;;;15.68;11.13;;;;;;;;;;5073472;28;20070;-62
2023/08/26 09:07:05;;;;;;;12.95;9.65;;;;;;;;;;5072952;28;20360;-62
2023/08/26 09:09:31;;;;;;;11.65;10.45;;;;;;;;;;5072176;28;20041;-62
2023/08/26 09:11:58;;;;;;;18.20;9.77;;;;;;;;;;5071788;28;20470;-62
2023/08/26 09:14:24;;;;;;;16.38;9.95;;;;;;;;;;5072956;28;20040;-62
2023/08/26 09:16:50;;;;;;;19.02;9.93;;;;;;;;;;5073136;28;20083;-62
2023/08/26 09:19:16;;;;;;;12.48;8.55;;;;;;;;;;5073169;28;20045;-62
2023/08/26 09:21:43;;;;;;;15.85;9.75;;;;;;;;;;5072573;28;20041;-62
2023/08/26 09:24:16;;;;;;;15.18;8.23;;;;;;;;;;5072365;28;20045;-62
2023/08/26 09:26:43;;;;;;;14.43;8.07;;;;;;;;;;5086821;28;20440;-62
2023/08/26 09:29:16;;;;;;;11.65;7.47;;;;;;;;;;5092231;28;20047;-62
2023/08/26 09:31:49;;;;;;;11.68;7.45;;;;;;;;;;5091369;28;20069;-62
2023/08/26 09:34:25;;;;;;;10.80;7.03;;;;;;;;;;5093030;28;20081;-62
2023/08/26 09:36:51;;;;;;;12.45;6.65;;;;;;;;;;5092467;28;20109;-62
2023/08/26 09:39:17;;;;;;;15.75;7.95;;;;;;;;;;5092911;28;20126;-62
2023/08/26 09:41:45;;;;;;;12.35;6.90;;;;;;;;;;5092422;28;20048;-62
2023/08/26 09:44:12;;;;;;;14.02;6.72;;;;;;;;;;5092092;28;20067;-62
2023/08/26 09:46:42;;;;;;;11.60;6.80;;;;;;;;;;5092490;28;20055;-62
2023/08/26 09:49:11;;;;;;;12.57;7.05;;;;;;;;;;5087432;28;20037;-62
2023/08/26 09:51:37;;;;;;;11.02;4.82;;;;;;;;;;5071959;28;20486;-62
2023/08/26 09:54:04;;;;;;;9.75;4.80;;;;;;;;;;5072530;28;20127;-63
2023/08/26 09:56:30;;;;;;;10.98;3.95;;;;;;;;;;5072214;28;20044;-62
2023/08/26 09:58:56;;;;;;;7.22;3.30;;;;;;;;;;5071912;28;20044;-62
2023/08/26 10:01:24;;;;;;;10.43;3.00;;;;;;;;;;5072108;28;20072;-62
2023/08/26 10:03:52;;;;;;;7.57;2.42;;;;;;;;;;5072277;28;20036;-62
2023/08/26 10:06:20;;;;;;;8.00;2.13;;;;;;;;;;5070234;28;20098;-62
2023/08/26 10:08:48;;;;;;;7.45;2.45;;;;;;;;;;5072124;28;20040;-62
2023/08/26 10:11:15;;;;;;;7.88;2.25;;;;;;;;;;5071926;28;20036;-62
2023/08/26 10:13:43;;;;;;;6.65;1.90;;;;;;;;;;5071651;28;20043;-62
2023/08/26 10:16:09;;;;;;;8.18;2.75;;;;;;;;;;5072087;28;20153;-62
2023/08/26 10:18:35;;;;;;;7.93;2.75;;;;;;;;;;5071743;28;20132;-62
2023/08/26 10:21:03;;;;;;;9.02;2.45;;;;;;;;;;5071451;28;20123;-62
2023/08/26 10:23:30;;;;;;;9.57;3.38;;;;;;;;;;5071934;28;20402;-62
2023/08/26 10:25:56;;;;;;;6.10;3.00;;;;;;;;;;5079207;28;20035;-62
2023/08/26 10:28:23;;;;;;;9.18;3.10;;;;;;;;;;5091444;28;20048;-62
2023/08/26 10:30:50;;;;;;;10.30;3.50;;;;;;;;;;5091683;28;20040;-62
2023/08/26 10:33:18;;;;;;;8.93;3.55;;;;;;;;;;5092048;28;20040;-62
2023/08/26 10:35:57;;;;;;;5.55;2.17;;;;;;;;;;5090556;28;20044;-62
2023/08/26 10:38:23;;;;;;;5.80;2.10;;;;;;;;;;5091816;28;20428;-63
2023/08/26 10:40:49;;;;;;;8.30;2.40;;;;;;;;;;5091770;28;20047;-62
2023/08/26 10:43:15;;;;;;;6.53;1.65;;;;;;;;;;5091530;28;20036;-63
2023/08/26 10:45:45;;;;;;;7.70;2.20;;;;;;;;;;5091847;28;20425;-62
2023/08/26 10:48:11;;;;;;;7.10;2.20;;;;;;;;;;5091506;28;20048;-62
2023/08/26 10:50:37;;;;;;;6.93;2.10;;;;;;;;;;5072373;28;20044;-62
2023/08/26 10:53:19;;;;;;;6.78;1.85;;;;;;;;;;5071141;28;20042;-63
2023/08/26 10:55:50;;;;;;;5.93;1.75;;;;;;;;;;5070128;28;20051;-62
2023/08/26 10:58:18;;;;;;;3.95;1.40;;;;;;;;;;5071011;28;20036;-62
2023/08/26 11:00:53;;;;;;;4.10;1.30;;;;;;;;;;5071277;28;20042;-62
2023/08/26 11:03:23;;;;;;;5.90;1.35;;;;;;;;;;5071373;28;20090;-62
2023/08/26 11:06:03;;;;;;;6.03;1.92;;;;;;;;;;5070794;28;20076;-63
2023/08/26 11:08:29;;;;;;;6.53;1.90;;;;;;;;;;5071424;28;20641;-63
2023/08/26 11:10:55;;;;;;;4.18;1.15;;;;;;;;;;5071210;28;20036;-63
2023/08/26 11:13:22;;;;;;;2.55;1.15;;;;;;;;;;5071064;28;20474;-63
2023/08/26 11:15:49;;;;;;;5.68;1.17;;;;;;;;;;5071406;28;20532;-63
2023/08/26 11:18:16;;;;;;;3.42;1.35;;;;;;;;;;5071309;28;20064;-62
2023/08/26 11:20:43;;;;;;;6.80;1.75;;;;;;;;;;5070842;28;20047;-62
2023/08/26 11:23:09;;;;;;;2.80;1.05;;;;;;;;;;5085142;28;20028;-63
2023/08/26 11:25:36;;;;;;;4.50;1.40;;;;;;;;;;5075926;28;20032;-63
2023/08/26 11:28:10;;;;;;;3.15;1.83;;;;;;;;;;5090907;28;20155;-63
2023/08/26 11:30:43;;;;;;;3.45;1.58;;;;;;;;;;5091148;28;20051;-63
2023/08/26 11:33:11;;;;;;;3.75;1.70;;;;;;;;;;5090393;28;20524;-63
2023/08/26 11:35:41;;;;;;;2.60;1.42;;;;;;;;;;5090919;28;20118;-63
2023/08/26 11:38:07;;;;;;;3.05;1.30;;;;;;;;;;5091276;28;20087;-63
2023/08/26 11:40:33;;;;;;;4.60;1.95;;;;;;;;;;5091216;28;20482;-62
2023/08/26 11:43:04;;;;;;;2.83;1.23;;;;;;;;;;5088352;28;20036;-62
2023/08/26 11:45:30;;;;;;;4.53;1.43;;;;;;;;;;5090555;28;20119;-63
2023/08/26 11:47:56;;;;;;;4.88;2.15;;;;;;;;;;5092609;28;20784;-63
2023/08/26 11:50:23;;;;;;;3.03;1.50;;;;;;;;;;5079077;28;20040;-63
2023/08/26 11:52:49;;;;;;;2.92;1.30;;;;;;;;;;5085355;28;20506;-63
2023/08/26 11:55:15;;;;;;;2.67;1.38;;;;;;;;;;5095246;28;20038;-63
2023/08/26 11:57:41;;;;;;;2.65;1.60;;;;;;;;;;5094785;28;20039;-63
2023/08/26 12:00:07;;;;;;;3.20;1.58;;;;;;;;;;5094680;28;20048;-63
2023/08/26 12:02:33;;;;;;;2.03;1.60;;;;;;;;;;5093837;28;20505;-63
2023/08/26 12:04:59;;;;;;;3.45;1.75;;;;;;;;;;5094357;28;20032;-63
2023/08/26 12:07:26;;;;;;;3.53;1.75;;;;;;;;;;5094640;28;20515;-63
2023/08/26 12:09:52;;;;;;;5.70;2.05;;;;;;;;;;5094678;28;20036;-63
2023/08/26 12:12:19;;;;;;;6.03;2.05;;;;;;;;;;5092660;28;20107;-63
2023/08/26 12:14:46;;;;;;;4.45;2.35;;;;;;;;;;5093506;28;20497;-63
2023/08/26 12:17:12;;;;;;;5.32;2.10;;;;;;;;;;5094772;28;20457;-63
2023/08/26 12:19:38;;;;;;;2.45;2.10;;;;;;;;;;5094231;28;20123;-63
2023/08/26 12:22:05;;;;;;;3.65;2.05;;;;;;;;;;5093435;28;20122;-63
2023/08/26 12:24:31;;;;;;;4.28;1.80;;;;;;;;;;5094255;28;20089;-63
2023/08/26 12:27:06;;;;;;;2.83;1.70;;;;;;;;;;5077483;28;20075;-63
2023/08/26 12:29:33;;;;;;;7.43;1.80;;;;;;;;;;5073722;28;20143;-63
2023/08/26 12:31:59;;;;;;;3.90;1.98;;;;;;;;;;5076311;28;20545;-63
2023/08/26 12:34:25;;;;;;;3.90;2.08;;;;;;;;;;5093575;28;20101;-63
2023/08/26 12:36:51;;;;;;;3.50;1.77;;;;;;;;;;5094215;28;20040;-63
2023/08/26 12:39:17;;;;;;;2.63;1.65;;;;;;;;;;5093121;28;20249;-63
2023/08/26 12:41:43;;;;;;;4.22;1.40;;;;;;;;;;5092601;28;20051;-63
2023/08/26 12:44:09;;;;;;;2.28;1.52;;;;;;;;;;5093031;28;20567;-63
2023/08/26 12:46:36;;;;;;;1.70;1.40;;;;;;;;;;5093957;28;20036;-63
2023/08/26 12:49:02;;;;;;;2.65;1.85;;;;;;;;;;5089424;28;20393;-63
2023/08/26 12:51:28;;;;;;;5.75;1.50;;;;;;;;;;5073639;28;20052;-63
2023/08/26 12:53:55;;;;;;;1.88;1.33;;;;;;;;;;5073724;28;20119;-63
2023/08/26 12:56:21;;;;;;;3.83;1.95;;;;;;;;;;5072885;28;20041;-63
2023/08/26 12:58:51;;;;;;;2.97;1.92;;;;;;;;;;5072975;28;20057;-63
2023/08/26 13:01:17;;;;;;;1.90;1.70;;;;;;;;;;5073330;28;20040;-63
2023/08/26 13:03:43;;;;;;;3.45;2.47;;;;;;;;;;5072928;28;20055;-63
2023/08/26 13:06:09;;;;;;;3.13;2.03;;;;;;;;;;5073233;28;20171;-63
2023/08/26 13:08:36;;;;;;;3.42;1.90;;;;;;;;;;5073401;28;20044;-63
2023/08/26 13:11:02;;;;;;;2.85;2.00;;;;;;;;;;5072712;28;20394;-63
2023/08/26 13:13:28;;;;;;;2.75;2.00;;;;;;;;;;5073018;28;20138;-63
2023/08/26 13:15:55;;;;;;;4.03;1.83;;;;;;;;;;5073101;28;20051;-63
2023/08/26 13:18:21;;;;;;;2.88;1.80;;;;;;;;;;5072746;28;20403;-63
2023/08/26 13:20:47;;;;;;;3.78;1.75;;;;;;;;;;5073151;28;20040;-63
2023/08/26 13:23:13;;;;;;;2.65;1.90;;;;;;;;;;5072639;28;20060;-63
2023/08/26 13:25:40;;;;;;;2.35;1.90;;;;;;;;;;5077770;28;20032;-63
2023/08/26 13:28:06;;;;;;;3.22;2.20;;;;;;;;;;5092964;28;20432;-63
2023/08/26 13:30:33;;;;;;;2.90;2.00;;;;;;;;;;5093151;28;20534;-63
2023/08/26 13:32:59;;;;;;;3.65;2.25;;;;;;;;;;5092371;28;20043;-63
2023/08/26 13:35:25;;;;;;;3.10;2.58;;;;;;;;;;5093055;28;20391;-63
2023/08/26 13:37:51;;;;;;;6.13;2.70;;;;;;;;;;5091861;28;20402;-63
2023/08/26 13:40:17;;;;;;;3.20;2.53;;;;;;;;;;5092414;28;20398;-63
2023/08/26 13:42:43;;;;;;;3.50;2.95;;;;;;;;;;5091695;28;20043;-63
2023/08/26 13:45:09;;;;;;;3.95;2.60;;;;;;;;;;5092943;28;20043;-63
2023/08/26 13:47:35;;;;;;;3.75;2.90;;;;;;;;;;5092067;28;20094;-63
2023/08/26 13:50:01;;;;;;;3.30;3.00;;;;;;;;;;5080079;28;20040;-63
2023/08/26 13:52:27;;;;;;;4.55;3.13;;;;;;;;;;5072476;28;20119;-63
2023/08/26 13:54:53;;;;;;;4.65;2.90;;;;;;;;;;5071521;28;20084;-63
2023/08/26 13:57:19;;;;;;;2.30;2.10;;;;;;;;;;5072355;28;20048;-63
2023/08/26 13:59:45;;;;;;;2.33;2.00;;;;;;;;;;5072404;28;20051;-63
2023/08/26 14:02:12;;;;;;;5.13;2.83;;;;;;;;;;5071841;28;20123;-63
2023/08/26 14:04:38;;;;;;;2.92;2.70;;;;;;;;;;5071968;28;20038;-63
2023/08/26 14:07:04;;;;;;;4.45;3.38;;;;;;;;;;5072261;28;20844;-63
2023/08/26 14:09:30;;;;;;;3.90;3.50;;;;;;;;;;5071965;28;20044;-63
2023/08/26 14:11:58;;;;;;;4.05;3.63;;;;;;;;;;5071823;28;20036;-63
2023/08/26 14:14:24;;;;;;;4.10;3.30;;;;;;;;;;5072218;28;20107;-63
2023/08/26 14:16:50;;;;;;;4.75;4.00;;;;;;;;;;5071859;28;20115;-63
2023/08/26 14:19:16;;;;;;;3.85;2.50;;;;;;;;;;5072061;28;20072;-63
2023/08/26 14:21:42;;;;;;;3.83;2.20;;;;;;;;;;5071800;28;20041;-63
2023/08/26 14:24:08;;;;;;;2.70;2.15;;;;;;;;;;5071451;28;20048;-63
2023/08/26 14:26:34;;;;;;;4.47;1.83;;;;;;;;;;5084803;28;20075;-63
2023/08/26 14:29:00;;;;;;;4.25;1.90;;;;;;;;;;5091823;28;20052;-63